Time;durP1;ratioP1;P1;durP2;ratioP2;P2;SDS_P1;SDS_P2;PMS_P1;PMS_P2;Temp;Humidity;BMP_temperature;BMP_pressure;BME280_temperature;BME280_humidity;BME280_pressure;Samples;Min_cycle;Max_cycle;Signal;HPM_P1;HPM_P2
2021/11/24 00:01:28;;;;;;;35.10;19.77;;;;;;;4.74;100.00;99643.85;2143818;83;21008;-85
2021/11/24 00:04:29;;;;;;;34.73;20.97;;;;;;;4.77;100.00;99641.05;2143839;83;21528;-85
2021/11/24 00:07:30;;;;;;;39.33;22.58;;;;;;;4.80;100.00;99641.27;2144534;83;21028;-85
2021/11/24 00:10:35;;;;;;;36.40;20.75;;;;;;;4.80;100.00;99638.20;2144644;83;20993;-85
2021/11/24 00:13:34;;;;;;;33.53;20.77;;;;;;;4.81;100.00;99633.83;2144265;83;21000;-86
2021/11/24 00:16:35;;;;;;;36.90;22.30;;;;;;;4.79;100.00;99636.55;2143738;83;21124;-87
2021/11/24 00:19:35;;;;;;;28.65;17.95;;;;;;;4.80;100.00;99641.27;2143836;83;21041;-86
2021/11/24 00:22:36;;;;;;;35.88;21.27;;;;;;;4.83;100.00;99641.02;2143780;83;21088;-86
2021/11/24 00:25:37;;;;;;;32.13;19.37;;;;;;;4.82;100.00;99630.28;2143678;83;20973;-87
2021/11/24 00:28:38;;;;;;;25.65;17.10;;;;;;;4.83;100.00;99636.65;2143896;83;21052;-86
2021/11/24 00:31:39;;;;;;;32.65;18.85;;;;;;;4.87;100.00;99633.83;2143904;83;21035;-85
2021/11/24 00:34:40;;;;;;;39.63;22.32;;;;;;;4.82;100.00;99641.48;2143610;83;20945;-86
2021/11/24 00:37:41;;;;;;;42.08;23.73;;;;;;;4.85;100.00;99633.95;2143740;83;21132;-86
2021/11/24 00:40:42;;;;;;;41.15;22.62;;;;;;;4.90;100.00;99632.28;2143583;83;21093;-86
2021/11/24 00:43:43;;;;;;;32.00;20.37;;;;;;;4.91;100.00;99635.22;2143772;83;21055;-88
2021/11/24 00:46:44;;;;;;;34.65;20.90;;;;;;;4.91;100.00;99635.22;2143593;83;21694;-87
2021/11/24 00:49:45;;;;;;;35.40;21.87;;;;;;;4.86;100.00;99633.01;2143590;83;21054;-86
2021/11/24 00:52:46;;;;;;;39.10;21.17;;;;;;;4.88;100.00;99629.81;2143768;83;21572;-87
2021/11/24 00:55:47;;;;;;;30.62;19.10;;;;;;;4.88;100.00;99635.48;2143726;83;21048;-85
2021/11/24 00:58:47;;;;;;;31.97;20.30;;;;;;;4.88;100.00;99627.22;2143827;83;20977;-86
2021/11/24 01:01:48;;;;;;;37.08;24.77;;;;;;;4.89;100.00;99624.97;2143692;83;21554;-85
2021/11/24 01:04:49;;;;;;;47.55;26.42;;;;;;;4.88;100.00;99622.50;2143915;83;20972;-86
2021/11/24 01:07:50;;;;;;;42.70;23.35;;;;;;;4.85;100.00;99629.59;2143846;83;21119;-85
2021/11/24 01:10:51;;;;;;;38.60;23.40;;;;;;;4.80;100.00;99626.52;2144718;83;21001;-85
2021/11/24 01:13:52;;;;;;;36.40;21.60;;;;;;;4.79;100.00;99626.17;2144764;83;21111;-84
2021/11/24 01:16:52;;;;;;;36.23;20.17;;;;;;;4.79;100.00;99625.34;2144287;83;21099;-85
2021/11/24 01:19:53;;;;;;;34.00;20.43;;;;;;;4.80;100.00;99625.22;2143637;83;20961;-86
2021/11/24 01:22:54;;;;;;;30.92;18.15;;;;;;;4.81;100.00;99622.98;2144381;83;21558;-84
2021/11/24 01:25:55;;;;;;;33.55;21.45;;;;;;;4.80;100.00;99625.22;2145601;83;20998;-85
2021/11/24 01:28:56;;;;;;;28.47;19.37;;;;;;;4.77;100.00;99621.58;2145374;83;21060;-88
2021/11/24 01:31:56;;;;;;;34.30;20.65;;;;;;;4.78;100.00;99619.34;2143905;83;21474;-87
2021/11/24 01:34:57;;;;;;;39.08;22.50;;;;;;;4.77;100.00;99614.27;2143649;83;21021;-86
2021/11/24 01:37:58;;;;;;;31.55;20.92;;;;;;;4.69;100.00;99610.16;2143873;83;20985;-87
2021/11/24 01:40:59;;;;;;;31.20;19.27;;;;;;;4.67;100.00;99607.69;2143868;83;21069;-86
2021/11/24 01:44:00;;;;;;;28.02;18.80;;;;;;;4.62;100.00;99592.11;2143683;83;20992;-86
2021/11/24 01:47:00;;;;;;;29.20;18.10;;;;;;;4.62;100.00;99592.11;2143744;83;21131;-86
2021/11/24 01:50:01;;;;;;;25.30;17.77;;;;;;;4.64;100.00;99603.19;2143680;83;21005;-88
2021/11/24 01:53:02;;;;;;;30.68;18.73;;;;;;;4.59;100.00;99604.03;2143676;83;21012;-86
2021/11/24 01:56:03;;;;;;;26.75;18.37;;;;;;;4.58;100.00;99601.09;2143797;83;20977;-87
2021/11/24 01:59:04;;;;;;;29.60;19.80;;;;;;;4.55;100.00;99599.54;2143843;83;21302;-87
2021/11/24 02:02:05;;;;;;;29.05;18.12;;;;;;;4.54;100.00;99601.78;2143946;83;20980;-85
2021/11/24 02:05:05;;;;;;;27.37;17.77;;;;;;;4.49;100.00;99602.63;2144826;83;20961;-82
2021/11/24 02:08:06;;;;;;;28.38;18.30;;;;;;;4.45;100.00;99592.95;2145728;83;21551;-85
2021/11/24 02:11:07;;;;;;;32.13;20.80;;;;;;;4.43;100.00;99595.32;2144279;83;20961;-87
2021/11/24 02:14:08;;;;;;;46.77;30.72;;;;;;;4.38;100.00;99600.84;2145381;83;20969;-85
2021/11/24 02:17:09;;;;;;;43.38;24.77;;;;;;;4.38;100.00;99609.09;2145004;83;21032;-86
2021/11/24 02:20:10;;;;;;;38.33;22.50;;;;;;;4.38;100.00;99603.44;2143809;83;21049;-86
2021/11/24 02:23:11;;;;;;;34.75;19.57;;;;;;;4.40;100.00;99595.56;2143952;83;21477;-86
2021/11/24 02:26:12;;;;;;;41.05;22.00;;;;;;;4.40;100.00;99593.80;2143653;83;21040;-85
2021/11/24 02:29:13;;;;;;;36.98;20.32;;;;;;;4.38;100.00;99583.17;2143713;83;20989;-86
2021/11/24 02:32:14;;;;;;;116.93;53.40;;;;;;;4.43;100.00;99592.25;2143842;83;21020;-85
2021/11/24 02:35:15;;;;;;;184.30;79.97;;;;;;;4.43;100.00;99581.87;2142597;83;21017;-86
2021/11/24 02:38:16;;;;;;;99.52;37.78;;;;;;;4.44;100.00;99580.11;2133784;83;21607;-88
2021/11/24 02:41:17;;;;;;;59.00;27.17;;;;;;;4.46;100.00;99579.51;2133909;83;20985;-85
2021/11/24 02:44:18;;;;;;;43.23;21.20;;;;;;;4.53;100.00;99575.02;2133617;83;21084;-86
2021/11/24 02:47:19;;;;;;;34.92;18.30;;;;;;;4.56;100.00;99573.48;2133672;83;21020;-85
2021/11/24 02:50:20;;;;;;;34.63;18.55;;;;;;;4.59;100.00;99570.31;2133817;83;21055;-87
2021/11/24 02:53:21;;;;;;;44.75;22.67;;;;;;;4.52;100.00;99569.48;2133821;83;21547;-87
2021/11/24 02:56:22;;;;;;;259.25;98.62;;;;;;;4.50;100.00;99566.67;2133507;83;20986;-86
2021/11/24 02:59:22;;;;;;;137.20;49.18;;;;;;;4.46;100.00;99566.55;2133573;83;21555;-86
2021/11/24 03:02:26;;;;;;;75.85;30.48;;;;;;;4.39;100.00;99560.17;2133603;83;21033;-87
2021/11/24 03:05:26;;;;;;;42.25;19.05;;;;;;;4.33;100.00;99556.78;2133596;83;21016;-87
2021/11/24 03:08:27;;;;;;;43.13;18.30;;;;;;;4.31;100.00;99561.27;2133867;83;21063;-86
2021/11/24 03:11:27;;;;;;;33.45;16.37;;;;;;;4.26;100.00;99553.84;2133836;83;21017;-85
2021/11/24 03:14:28;;;;;;;31.57;17.07;;;;;;;4.27;100.00;99554.19;2134117;83;21112;-85
2021/11/24 03:17:29;;;;;;;31.95;17.12;;;;;;;4.25;100.00;99553.48;2134556;83;20966;-85
2021/11/24 03:20:30;;;;;;;28.10;15.83;;;;;;;4.29;100.00;99552.29;2134378;83;21047;-86
2021/11/24 03:23:31;;;;;;;32.13;18.55;;;;;;;4.29;100.00;99553.59;2133886;83;21041;-84
2021/11/24 03:26:32;;;;;;;59.85;26.97;;;;;;;4.29;100.00;99556.18;2134808;83;20973;-83
2021/11/24 03:29:32;;;;;;;87.35;35.08;;;;;;;4.31;100.00;99557.39;2135682;83;21053;-82
2021/11/24 03:32:33;;;;;;;44.20;20.97;;;;;;;4.29;100.00;99559.59;2135489;83;20966;-86
2021/11/24 03:35:34;;;;;;;35.55;19.45;;;;;;;4.33;100.00;99561.50;2134184;83;21143;-86
2021/11/24 03:38:35;;;;;;;37.05;18.60;;;;;;;4.38;100.00;99558.53;2133985;83;21460;-85
2021/11/24 03:41:36;;;;;;;33.90;18.98;;;;;;;4.40;100.00;99558.79;2133903;83;21517;-85
2021/11/24 03:44:37;;;;;;;31.27;16.45;;;;;;;4.40;100.00;99555.38;2133665;83;20973;-86
2021/11/24 03:47:38;;;;;;;32.67;17.80;;;;;;;4.39;100.00;99551.10;2133472;83;21040;-85
2021/11/24 03:50:38;;;;;;;32.98;16.17;;;;;;;4.37;100.00;99559.48;2133737;83;20996;-87
2021/11/24 03:53:40;;;;;;;50.83;27.30;;;;;;;4.36;100.00;99548.28;2133551;83;20973;-86
2021/11/24 03:56:41;;;;;;;71.42;34.43;;;;;;;4.29;100.00;99541.45;2133486;83;21017;-87
2021/11/24 03:59:42;;;;;;;53.02;25.32;;;;;;;4.23;100.00;99539.35;2133842;83;21070;-84
2021/11/24 04:02:43;;;;;;;35.25;17.67;;;;;;;4.16;100.00;99534.28;2133556;83;20998;-85
2021/11/24 04:05:44;;;;;;;37.88;16.87;;;;;;;4.12;100.00;99536.77;2133574;83;21085;-85
2021/11/24 04:08:45;;;;;;;43.98;17.60;;;;;;;4.13;100.00;99542.78;2133685;83;21044;-84
2021/11/24 04:11:45;;;;;;;28.77;16.02;;;;;;;4.11;100.00;99532.50;2133524;83;20977;-85
2021/11/24 04:14:46;;;;;;;31.55;14.60;;;;;;;4.11;100.00;99532.98;2133208;83;21040;-85
2021/11/24 04:17:47;;;;;;;29.00;16.42;;;;;;;4.10;100.00;99529.56;2133475;83;21100;-87
2021/11/24 04:20:48;;;;;;;29.57;15.35;;;;;;;4.09;100.00;99528.39;2134202;83;20993;-82
2021/11/24 04:23:49;;;;;;;29.52;17.48;;;;;;;4.09;100.00;99526.63;2133926;83;21065;-83
2021/11/24 04:26:49;;;;;;;49.00;25.95;;;;;;;4.08;100.00;99529.34;2133626;83;21016;-82
2021/11/24 04:29:50;;;;;;;62.00;27.65;;;;;;;4.04;100.00;99530.05;2133672;83;21012;-82
2021/11/24 04:32:51;;;;;;;38.92;17.62;;;;;;;4.03;100.00;99531.48;2133529;83;21005;-83
2021/11/24 04:35:52;;;;;;;25.27;14.93;;;;;;;4.00;100.00;99535.11;2133305;83;21044;-83
2021/11/24 04:38:53;;;;;;;29.80;14.07;;;;;;;3.99;100.00;99535.58;2133620;83;21492;-83
2021/11/24 04:41:53;;;;;;;20.77;12.85;;;;;;;3.98;100.00;99533.11;2133603;83;21205;-83
2021/11/24 04:44:54;;;;;;;25.55;14.53;;;;;;;3.95;100.00;99533.36;2133607;83;21056;-83
2021/11/24 04:47:55;;;;;;;20.25;12.98;;;;;;;3.96;100.00;99536.30;2133564;83;21532;-84
2021/11/24 04:50:56;;;;;;;20.43;13.32;;;;;;;3.97;100.00;99532.76;2133646;83;21008;-84
2021/11/24 04:53:57;;;;;;;27.17;15.55;;;;;;;4.02;100.00;99542.28;2133557;83;20992;-82
2021/11/24 04:56:57;;;;;;;41.35;20.65;;;;;;;4.02;100.00;99539.69;2133589;83;21072;-83
2021/11/24 04:59:58;;;;;;;66.57;40.60;;;;;;;4.04;100.00;99530.53;2133446;83;21631;-82
2021/11/24 05:02:59;;;;;;;89.13;44.55;;;;;;;4.05;100.00;99534.30;2133669;83;20946;-83
2021/11/24 05:06:00;;;;;;;49.35;24.20;;;;;;;4.09;100.00;99528.39;2133495;83;21043;-83
2021/11/24 05:09:01;;;;;;;31.40;17.05;;;;;;;4.11;100.00;99530.39;2133514;83;21593;-83
2021/11/24 05:12:04;;;;;;;22.42;13.83;;;;;;;4.11;100.00;99526.02;2133572;83;20970;-83
2021/11/24 05:15:04;;;;;;;21.87;13.70;;;;;;;4.11;100.00;99526.02;2133434;83;21020;-82
2021/11/24 05:18:07;;;;;;;23.38;14.18;;;;;;;4.13;100.00;99530.64;2133411;83;20993;-83
2021/11/24 05:21:15;;;;;;;21.02;13.72;;;;;;;4.17;100.00;99528.63;2133417;83;21072;-82
2021/11/24 05:24:14;;;;;;;23.12;14.58;;;;;;;4.17;100.00;99524.73;2133173;83;21033;-83
2021/11/24 05:27:15;;;;;;;21.17;13.22;;;;;;;4.17;100.00;99527.33;2133428;83;21492;-83
2021/11/24 05:30:16;;;;;;;23.07;15.08;;;;;;;4.15;100.00;99533.94;2133442;83;21005;-83
2021/11/24 05:33:16;;;;;;;32.65;20.20;;;;;;;4.16;100.00;99536.87;2133306;83;21111;-83
2021/11/24 05:36:17;;;;;;;50.17;30.32;;;;;;;4.19;100.00;99539.22;2133393;83;20973;-84
2021/11/24 05:39:18;;;;;;;52.35;25.17;;;;;;;4.19;100.00;99536.63;2133472;83;21115;-84
2021/11/24 05:42:19;;;;;;;42.03;19.23;;;;;;;4.22;100.00;99533.81;2133185;83;20981;-84
2021/11/24 05:48:33;;;;;;;32.53;16.52;;;;;;;4.29;100.00;99541.92;2133348;83;21597;-82
2021/11/24 05:51:34;;;;;;;30.43;14.75;;;;;;;4.30;100.00;99541.01;2133359;83;20981;-82
2021/11/24 05:54:35;;;;;;;34.88;17.02;;;;;;;4.29;100.00;99535.44;2133243;83;20997;-81
2021/11/24 05:57:36;;;;;;;34.18;15.18;;;;;;;4.29;100.00;99531.55;2133365;83;21042;-81
2021/11/24 06:00:37;;;;;;;33.45;17.70;;;;;;;4.26;100.00;99542.17;2133250;83;21013;-82
2021/11/24 06:03:38;;;;;;;35.35;18.67;;;;;;;4.30;100.00;99538.41;2133399;83;21647;-82
2021/11/24 06:06:39;;;;;;;39.53;22.37;;;;;;;4.32;100.00;99538.29;2133454;83;21017;-82
2021/11/24 06:09:40;;;;;;;46.05;23.12;;;;;;;4.29;100.00;99541.92;2133526;83;20985;-82
2021/11/24 06:12:40;;;;;;;49.15;20.85;;;;;;;4.25;100.00;99545.23;2133475;83;21068;-83
2021/11/24 06:15:41;;;;;;;36.63;16.55;;;;;;;4.26;100.00;99532.62;2133525;83;21057;-83
2021/11/24 06:18:42;;;;;;;34.75;16.17;;;;;;;4.23;100.00;99534.64;2133586;83;21516;-83
2021/11/24 06:21:43;;;;;;;30.10;14.18;;;;;;;4.19;100.00;99533.22;2133650;83;20981;-83
2021/11/24 06:24:44;;;;;;;26.17;13.60;;;;;;;4.15;100.00;99543.48;2134208;83;21058;-83
2021/11/24 06:27:45;;;;;;;24.40;14.65;;;;;;;4.18;100.00;99532.86;2134361;83;21077;-81
2021/11/24 06:30:46;;;;;;;23.98;13.40;;;;;;;4.22;100.00;99535.59;2133956;83;21080;-82
2021/11/24 06:33:48;;;;;;;21.07;13.95;;;;;;;4.23;100.00;99539.35;2133477;83;21024;-82
2021/11/24 06:36:49;;;;;;;25.68;15.23;;;;;;;4.20;100.00;99536.98;2133287;83;21045;-82
2021/11/24 06:39:50;;;;;;;21.57;13.95;;;;;;;4.19;100.00;99536.63;2133384;83;20984;-81
2021/11/24 06:42:51;;;;;;;21.70;14.87;;;;;;;4.20;100.00;99536.16;2133528;83;21100;-82
2021/11/24 06:45:51;;;;;;;18.92;13.78;;;;;;;4.22;100.00;99541.59;2133548;83;21048;-82
2021/11/24 06:48:52;;;;;;;23.32;13.48;;;;;;;4.28;100.00;99545.46;2133779;83;21012;-82
2021/11/24 06:51:53;;;;;;;27.07;15.50;;;;;;;4.27;100.00;99541.22;2133536;83;20973;-84
2021/11/24 06:54:54;;;;;;;24.32;15.08;;;;;;;4.28;100.00;99538.51;2097734;83;21001;-81
2021/11/24 06:57:55;;;;;;;27.75;17.27;;;;;;;4.34;100.00;99538.52;2109996;84;21062;-83
2021/11/24 07:00:56;;;;;;;30.35;16.85;;;;;;;4.37;100.00;99538.27;2110011;84;21053;-87
2021/11/24 07:03:57;;;;;;;29.63;18.02;;;;;;;4.40;100.00;99544.53;2110585;84;21014;-82
2021/11/24 07:06:58;;;;;;;31.17;17.35;;;;;;;4.43;100.00;99548.64;2110486;84;21015;-83
2021/11/24 07:09:59;;;;;;;37.40;19.37;;;;;;;4.47;100.00;99546.14;2110467;84;21022;-83
2021/11/24 07:12:59;;;;;;;34.05;17.60;;;;;;;4.55;100.00;99552.86;2126603;84;21032;-83
2021/11/24 07:16:00;;;;;;;24.25;14.53;;;;;;;4.62;100.00;99551.91;2126889;84;21025;-83
2021/11/24 07:19:01;;;;;;;22.17;13.62;;;;;;;4.70;100.00;99547.76;2126905;83;20982;-83
2021/11/24 07:22:02;;;;;;;23.85;14.55;;;;;;;4.78;100.00;99544.56;2126838;84;21025;-82
2021/11/24 07:25:03;;;;;;;26.97;12.90;;;;;;;4.90;100.00;99555.25;2126946;84;21058;-82
2021/11/24 07:28:04;;;;;;;21.73;14.13;;;;;;;4.90;100.00;99555.25;2127915;83;21036;-82
2021/11/24 07:31:05;;;;;;;21.25;13.05;;;;;;;4.98;100.00;99550.75;2127572;83;21069;-83
2021/11/24 07:34:06;;;;;;;26.10;15.23;;;;;;;5.03;100.00;99549.88;2126718;84;21017;-83
2021/11/24 07:37:07;;;;;;;34.03;19.10;;;;;;;5.06;100.00;99550.48;2126536;83;21112;-83
2021/11/24 07:40:07;;;;;;;21.50;13.30;;;;;;;5.09;100.00;99551.99;2119354;83;20996;-83
2021/11/24 07:43:08;;;;;;;30.20;18.12;;;;;;;5.11;100.00;99550.91;2158980;80;21116;-83
2021/11/24 07:46:09;;;;;;;80.00;37.20;;;;;;;5.13;100.00;99551.64;2168269;82;21478;-84
2021/11/24 07:49:10;;;;;;;63.63;30.88;;;;;;;5.19;100.00;99550.30;2169163;82;21032;-83
2021/11/24 07:52:11;;;;;;;45.65;24.12;;;;;;;5.25;100.00;99555.00;2169664;82;21023;-83
2021/11/24 07:55:12;;;;;;;37.95;18.80;;;;;;;5.32;100.00;99557.45;2169359;82;21007;-83
2021/11/24 07:58:14;;;;;;;40.40;20.92;;;;;;;5.39;100.00;99548.66;2169238;82;21082;-83
2021/11/24 08:01:14;;;;;;;41.35;19.67;;;;;;;5.47;100.00;99555.35;2169399;82;21090;-84
2021/11/24 08:04:15;;;;;;;35.08;18.05;;;;;;;5.53;100.00;99549.66;2169434;82;20976;-86
2021/11/24 08:07:16;;;;;;;105.50;45.43;;;;;;;5.62;100.00;99544.17;2169284;82;21113;-84
2021/11/24 08:10:17;;;;;;;104.87;45.08;;;;;;;5.65;100.00;99546.51;2169348;82;21561;-83
2021/11/24 08:13:21;;;;;;;52.17;23.95;;;;;;;5.70;100.00;99543.88;2169501;82;20983;-82
2021/11/24 08:16:24;;;;;;;36.23;18.23;;;;;;;5.73;100.00;99543.28;2169939;82;21034;-81
2021/11/24 08:19:25;;;;;;;27.25;15.38;;;;;;;5.80;100.00;99540.52;2164697;82;21004;-84
2021/11/24 08:22:26;;;;;;;26.70;15.38;;;;;;;5.84;100.00;99541.89;2169477;82;21026;-86
2021/11/24 08:25:27;;;;;;;37.38;17.75;;;;;;;5.85;100.00;99550.03;2169740;82;20971;-87
2021/11/24 08:28:28;;;;;;;33.18;19.25;;;;;;;5.85;100.00;99540.48;2169929;82;21649;-86
2021/11/24 08:31:29;;;;;;;28.15;17.02;;;;;;;5.91;100.00;99546.48;2169232;82;21034;-84
2021/11/24 08:34:30;;;;;;;139.65;64.27;;;;;;;5.97;100.00;99547.75;2169667;82;21077;-83
2021/11/24 08:37:31;;;;;;;154.18;61.53;;;;;;;5.98;100.00;99550.70;2172143;82;21015;-79
2021/11/24 08:40:32;;;;;;;111.00;40.48;;;;;;;6.00;100.00;99553.98;2172389;82;21020;-77
2021/11/24 08:43:33;;;;;;;57.55;23.12;;;;;;;6.03;100.00;99545.91;2172511;82;20969;-79
2021/11/24 08:46:34;;;;;;;53.95;22.98;;;;;;;6.09;100.00;99541.98;2170950;82;21010;-84
2021/11/24 08:49:35;;;;;;;48.48;21.73;;;;;;;6.15;100.00;99545.36;2170148;82;21021;-83
2021/11/24 08:52:36;;;;;;;38.92;20.35;;;;;;;6.23;100.00;99548.14;2169203;82;21522;-83
2021/11/24 08:55:38;;;;;;;44.40;20.48;;;;;;;6.26;100.00;99555.66;2169202;82;21018;-83
2021/11/24 08:58:40;;;;;;;34.15;17.05;;;;;;;6.25;100.00;99561.83;2169360;82;21542;-83
2021/11/24 09:01:41;;;;;;;40.48;20.15;;;;;;;6.33;100.00;99563.77;2169215;82;21094;-83
2021/11/24 09:04:42;;;;;;;73.80;37.85;;;;;;;6.35;100.00;99558.78;2169014;82;20968;-83
2021/11/24 09:07:43;;;;;;;161.22;63.60;;;;;;;6.43;100.00;99555.04;2168759;82;21062;-82
2021/11/24 09:10:44;;;;;;;70.47;28.62;;;;;;;6.47;100.00;99554.28;2169060;82;21030;-83
2021/11/24 09:13:45;;;;;;;62.40;26.27;;;;;;;6.48;100.00;99557.23;2169273;82;21034;-83
2021/11/24 09:16:46;;;;;;;41.70;19.40;;;;;;;6.51;100.00;99552.60;2169465;82;21023;-82
2021/11/24 09:19:48;;;;;;;29.40;15.55;;;;;;;6.53;100.00;99555.89;2169233;82;21485;-83
2021/11/24 09:22:49;;;;;;;22.80;13.93;;;;;;;6.52;100.00;99549.52;2169224;82;20978;-83
2021/11/24 09:26:01;;;;;;;31.33;16.67;;;;;;;6.55;100.00;99550.55;2169303;82;20979;-84
2021/11/24 09:28:56;;;;;;;22.85;14.75;;;;;;;6.62;100.00;99546.45;2168114;82;21074;-83
2021/11/24 09:32:03;;;;;;;22.80;14.13;;;;;;;6.66;100.00;99545.70;2168934;82;21605;-83
2021/11/24 09:35:03;;;;;;;19.00;13.55;;;;;;;6.69;100.00;99537.16;2168821;82;20987;-83
2021/11/24 09:38:05;;;;;;;27.42;17.87;;;;;;;6.72;100.00;99529.55;2169089;82;21027;-82
2021/11/24 09:41:07;;;;;;;34.67;21.65;;;;;;;6.73;100.00;99529.90;2169436;82;21512;-82
2021/11/24 09:44:08;;;;;;;30.08;17.15;;;;;;;6.74;100.00;99524.55;2171454;82;21011;-82
2021/11/24 09:47:09;;;;;;;17.32;12.20;;;;;;;6.77;100.00;99529.98;2172939;82;21106;-80
2021/11/24 09:50:10;;;;;;;25.20;14.78;;;;;;;6.79;100.00;99526.77;2171793;82;20979;-84
2021/11/24 09:53:11;;;;;;;25.62;15.28;;;;;;;6.83;100.00;99531.55;2169526;82;20984;-85
2021/11/24 09:56:12;;;;;;;20.40;12.23;;;;;;;6.91;100.00;99531.36;2169628;82;21051;-83
2021/11/24 09:59:13;;;;;;;14.58;10.65;;;;;;;7.01;100.00;99533.48;2169171;82;21031;-84
2021/11/24 10:02:14;;;;;;;17.20;13.35;;;;;;;7.08;100.00;99535.89;2169631;82;21585;-84
2021/11/24 10:05:17;;;;;;;18.52;12.88;;;;;;;7.11;100.00;99526.00;2169475;82;21002;-82
2021/11/24 10:08:17;;;;;;;14.13;10.98;;;;;;;7.19;100.00;99521.89;2169101;82;21046;-83
2021/11/24 10:11:19;;;;;;;28.30;20.85;;;;;;;7.19;100.00;99517.51;2168974;82;20999;-83
2021/11/24 10:14:20;;;;;;;31.12;19.35;;;;;;;7.21;100.00;99521.27;2169151;82;21022;-82
2021/11/24 10:17:21;;;;;;;22.98;12.82;;;;;;;7.16;100.00;99512.59;2169380;82;21054;-83
2021/11/24 10:20:23;;;;;;;15.90;10.10;;;;;;;7.16;100.00;99516.49;2169494;82;21019;-82
2021/11/24 10:23:24;;;;;;;16.05;11.50;;;;;;;7.17;100.00;99515.53;2169912;82;21264;-81
2021/11/24 10:26:31;;;;;;;15.90;10.43;;;;;;;7.21;100.00;99508.25;2169367;82;20999;-83
2021/11/24 10:29:31;;;;;;;11.85;9.53;;;;;;;7.19;100.00;99508.88;2169117;82;21007;-82
2021/11/24 10:32:32;;;;;;;13.70;9.45;;;;;;;7.19;100.00;99508.88;2173335;82;20986;-82
2021/11/24 10:35:33;;;;;;;12.37;9.48;;;;;;;7.13;100.00;99498.52;2172937;82;21101;-81
2021/11/24 10:38:34;;;;;;;10.90;9.23;;;;;;;7.14;100.00;99500.19;2171024;82;21433;-83
2021/11/24 10:41:37;;;;;;;15.15;10.75;;;;;;;7.16;100.00;99506.55;2177475;82;21022;-84
2021/11/24 10:44:40;;;;;;;19.45;14.50;;;;;;;7.23;100.00;99500.66;2179771;82;21023;-81
2021/11/24 10:47:41;;;;;;;15.50;10.45;;;;;;;7.27;100.00;99495.98;2183216;82;21090;-82
2021/11/24 10:50:43;;;;;;;13.70;9.73;;;;;;;7.28;100.00;99493.72;2182626;82;21066;-83
2021/11/24 10:53:44;;;;;;;14.15;10.28;;;;;;;7.33;100.00;99488.92;2180445;81;21015;-85
2021/11/24 10:56:45;;;;;;;12.03;9.30;;;;;;;7.35;100.00;99482.60;2179545;82;21618;-81
2021/11/24 10:59:46;;;;;;;15.32;10.48;;;;;;;7.35;100.00;99480.00;2179341;82;21022;-84
2021/11/24 11:02:47;;;;;;;12.95;9.73;;;;;;;7.38;100.00;99478.40;2179426;82;20951;-85
2021/11/24 11:05:49;;;;;;;13.38;9.78;;;;;;;7.41;100.00;99481.23;2179428;81;21054;-85
2021/11/24 11:08:51;;;;;;;11.45;9.25;;;;;;;7.38;100.00;99474.49;2179254;82;21548;-84
2021/11/24 11:11:52;;;;;;;12.53;9.83;;;;;;;7.37;100.00;99474.64;2179294;82;21028;-84
2021/11/24 11:14:53;;;;;;;18.23;14.75;;;;;;;7.32;100.00;99476.38;2179293;81;21046;-84
2021/11/24 11:17:54;;;;;;;25.55;17.85;;;;;;;7.24;100.00;99476.73;2179299;82;21105;-83
2021/11/24 11:20:56;;;;;;;20.17;12.40;;;;;;;7.22;100.00;99470.81;2179322;82;21478;-84
2021/11/24 11:23:57;;;;;;;16.65;11.40;;;;;;;7.17;100.00;99469.13;2179176;82;21098;-84
2021/11/24 11:26:58;;;;;;;16.57;11.40;;;;;;;7.13;100.00;99470.72;2179154;82;21097;-84
2021/11/24 11:30:00;;;;;;;18.87;11.20;;;;;;;7.13;100.00;99463.36;2179194;82;21039;-84
2021/11/24 11:33:01;;;;;;;15.88;10.50;;;;;;;7.16;100.00;99460.98;2179158;82;21049;-84
2021/11/24 11:36:07;;;;;;;17.62;11.78;;;;;;;7.16;100.00;99460.98;2179199;82;21001;-84
2021/11/24 11:39:05;;;;;;;15.78;11.75;;;;;;;7.20;100.00;99449.30;2178558;82;21054;-84
2021/11/24 11:42:06;;;;;;;14.78;11.03;;;;;;;7.27;100.00;99450.39;2170063;82;21038;-83
2021/11/24 11:45:08;;;;;;;13.20;9.63;;;;;;;7.30;100.00;99452.23;2169692;82;20987;-83
2021/11/24 11:48:09;;;;;;;15.25;11.60;;;;;;;7.30;100.00;99445.71;2172458;82;21070;-81
2021/11/24 11:51:10;;;;;;;15.40;11.53;;;;;;;7.30;100.00;99439.20;2172849;82;21099;-81
2021/11/24 11:54:12;;;;;;;20.27;10.95;;;;;;;7.29;100.00;99439.34;2170648;82;20987;-83
2021/11/24 11:57:13;;;;;;;16.87;10.50;;;;;;;7.29;100.00;99431.53;2169564;82;21011;-84
2021/11/24 12:00:14;;;;;;;12.95;9.68;;;;;;;7.31;100.00;99434.81;2169669;82;20994;-84
2021/11/24 12:03:15;;;;;;;16.27;10.25;;;;;;;7.29;100.00;99418.02;2169440;82;20987;-85
2021/11/24 12:06:16;;;;;;;13.53;10.00;;;;;;;7.27;100.00;99419.95;2169538;82;21042;-84
2021/11/24 12:09:17;;;;;;;13.65;10.32;;;;;;;7.26;100.00;99423.53;2169428;82;20998;-84
2021/11/24 12:12:18;;;;;;;16.67;9.65;;;;;;;7.24;100.00;99423.34;2169319;82;21018;-83
2021/11/24 12:15:21;;;;;;;14.98;10.35;;;;;;;7.22;100.00;99405.70;2169374;82;20987;-84
2021/11/24 12:18:22;;;;;;;26.48;15.40;;;;;;;7.21;100.00;99413.17;2169569;82;20982;-84
2021/11/24 12:21:23;;;;;;;15.43;9.50;;;;;;;7.18;100.00;99415.59;2169280;82;20979;-84
2021/11/24 12:24:24;;;;;;;9.10;7.55;;;;;;;7.11;100.00;99411.90;2169244;82;21014;-83
2021/11/24 12:27:26;;;;;;;12.07;8.08;;;;;;;7.05;100.00;99404.67;2169104;82;21518;-85
2021/11/24 12:30:27;;;;;;;10.25;7.40;;;;;;;6.93;100.00;99403.98;2169251;82;21018;-84
2021/11/24 12:33:29;;;;;;;9.23;7.20;;;;;;;6.96;100.00;99399.81;2169351;82;21053;-84
2021/11/24 12:36:30;;;;;;;12.03;7.87;;;;;;;7.00;100.00;99402.47;2169209;82;21030;-84
2021/11/24 12:39:31;;;;;;;17.60;12.75;;;;;;;7.02;100.00;99401.84;2169196;82;21022;-84
2021/11/24 12:42:33;;;;;;;10.85;8.43;;;;;;;7.05;100.00;99400.77;2178725;82;21044;-83
2021/11/24 12:45:34;;;;;;;11.55;9.03;;;;;;;7.06;100.00;99398.02;2179312;82;20982;-84
2021/11/24 12:48:35;;;;;;;16.70;13.95;;;;;;;7.07;100.00;99398.83;2180494;82;21059;-80
2021/11/24 12:51:36;;;;;;;45.10;37.63;;;;;;;7.09;100.00;99398.20;2181122;82;21109;-83
2021/11/24 12:54:39;;;;;;;175.20;114.75;;;;;;;7.04;100.00;99399.09;2179716;82;20987;-84
2021/11/24 12:57:40;;;;;;;76.00;42.93;;;;;;;7.05;100.00;99398.98;2179561;82;21046;-81
2021/11/24 13:00:43;;;;;;;40.75;21.35;;;;;;;7.03;100.00;99393.06;2179691;82;21491;-83
2021/11/24 13:03:44;;;;;;;22.67;11.48;;;;;;;7.02;100.00;99395.81;2179085;82;21509;-83
2021/11/24 13:06:45;;;;;;;19.75;13.00;;;;;;;7.00;100.00;99388.63;2179143;82;21014;-83
2021/11/24 13:09:46;;;;;;;29.02;16.02;;;;;;;7.03;100.00;99394.84;2179079;82;21070;-82
2021/11/24 13:12:47;;;;;;;87.08;55.30;;;;;;;6.96;100.00;99388.10;2179074;82;21026;-82
2021/11/24 13:15:48;;;;;;;79.95;54.27;;;;;;;6.94;100.00;99389.17;2179167;82;21034;-82
2021/11/24 13:18:49;;;;;;;36.60;21.82;;;;;;;6.89;100.00;99388.80;2179167;82;20967;-83
2021/11/24 13:21:50;;;;;;;19.40;10.78;;;;;;;6.88;100.00;99383.25;2179420;82;21002;-83
2021/11/24 13:24:51;;;;;;;15.60;8.80;;;;;;;6.83;100.00;99383.65;2179759;82;20982;-84
2021/11/24 13:27:53;;;;;;;11.85;7.50;;;;;;;6.81;100.00;99386.88;2179038;81;21010;-83
2021/11/24 13:30:54;;;;;;;16.55;10.80;;;;;;;6.78;100.00;99381.96;2179301;82;21021;-84
2021/11/24 13:33:55;;;;;;;47.48;34.73;;;;;;;6.77;100.00;99376.42;2179216;82;21013;-85
2021/11/24 13:36:56;;;;;;;55.98;47.53;;;;;;;6.71;100.00;99375.18;2179226;82;21009;-86
2021/11/24 13:39:57;;;;;;;35.05;24.43;;;;;;;6.66;100.00;99372.16;2178932;82;21039;-84
2021/11/24 13:42:59;;;;;;;21.85;12.53;;;;;;;6.61;100.00;99371.77;2179178;82;21150;-84
2021/11/24 13:45:59;;;;;;;17.57;10.98;;;;;;;6.63;100.00;99374.23;2179121;82;20964;-85
2021/11/24 13:49:00;;;;;;;20.82;11.40;;;;;;;6.61;100.00;99373.07;2179636;82;21042;-81
2021/11/24 13:52:01;;;;;;;26.23;12.07;;;;;;;6.57;100.00;99366.48;2183411;82;20975;-82
2021/11/24 13:55:02;;;;;;;87.42;38.75;;;;;;;6.50;100.00;99364.11;2182289;82;21038;-85